Time;durP1;ratioP1;P1;durP2;ratioP2;P2;SDS_P1;SDS_P2;PMS_P1;PMS_P2;Temp;Humidity;BMP_temperature;BMP_pressure;BME280_temperature;BME280_humidity;BME280_pressure;Samples;Min_cycle;Max_cycle;Signal;HPM_P1;HPM_P2
2021/12/19 00:00:28;;;;;;;45.67;19.60;;;7.20;99.90;;;;;;4998264;28;20474;-72
2021/12/19 00:10:55;;;;;;;44.10;21.40;;;7.20;99.90;;;;;;4994638;28;20935;-74
2021/12/19 00:13:25;;;;;;;42.57;17.27;;;7.20;99.90;;;;;;4997331;28;20458;-74
2021/12/19 00:15:52;;;;;;;46.13;20.23;;;7.20;99.90;;;;;;4980791;28;20462;-74
2021/12/19 00:18:18;;;;;;;44.67;17.90;;;7.20;99.90;;;;;;4997312;28;20426;-73
2021/12/19 00:20:44;;;;;;;47.70;20.07;;;7.20;99.90;;;;;;4979589;28;20845;-76
2021/12/19 00:23:11;;;;;;;48.10;20.10;;;7.20;99.90;;;;;;4996874;28;20468;-73
2021/12/19 00:25:37;;;;;;;43.10;18.67;;;7.20;99.90;;;;;;4983452;28;20875;-72
2021/12/19 00:28:03;;;;;;;47.73;19.13;;;7.20;99.90;;;;;;4996822;28;20438;-72
2021/12/19 00:30:28;;;;;;;52.27;20.50;;;7.20;99.90;;;;;;4998035;28;20255;-72
2021/12/19 00:32:57;;;;;;;44.70;20.73;;;7.20;99.90;;;;;;4997086;28;20461;-72
2021/12/19 00:35:23;;;;;;;47.80;19.57;;;7.20;99.90;;;;;;4978444;28;20503;-71
2021/12/19 00:37:50;;;;;;;50.50;20.93;;;7.20;99.90;;;;;;4979244;28;20918;-73
2021/12/19 00:40:16;;;;;;;46.33;19.07;;;7.20;99.90;;;;;;4996451;28;20453;-74
2021/12/19 00:42:42;;;;;;;55.30;23.13;;;7.20;99.90;;;;;;4995825;28;20418;-74
2021/12/19 00:45:26;;;;;;;46.73;18.70;;;7.20;99.90;;;;;;4995990;28;20438;-73
2021/12/19 00:47:52;;;;;;;44.60;17.90;;;7.20;99.90;;;;;;4977587;28;20898;-72
2021/12/19 00:50:22;;;;;;;50.70;19.77;;;7.20;99.90;;;;;;4991113;28;20485;-73
2021/12/19 00:52:48;;;;;;;51.87;20.93;;;7.20;99.90;;;;;;4978350;28;20673;-72
2021/12/19 00:55:15;;;;;;;50.73;18.70;;;7.20;99.90;;;;;;4996496;28;20443;-73
2021/12/19 00:57:41;;;;;;;39.00;18.40;;;7.20;99.90;;;;;;4995953;28;20423;-71
2021/12/19 01:00:10;;;;;;;40.50;18.57;;;7.20;99.90;;;;;;4989160;28;20457;-72
2021/12/19 01:02:35;;;;;;;46.70;19.93;;;7.20;99.90;;;;;;4995391;28;20346;-71
2021/12/19 01:05:04;;;;;;;44.33;18.80;;;7.20;99.90;;;;;;4983701;28;20793;-73
2021/12/19 01:07:30;;;;;;;47.27;17.60;;;7.20;99.90;;;;;;4988692;28;20245;-73
2021/12/19 01:09:58;;;;;;;43.40;19.07;;;7.20;99.90;;;;;;4995644;28;20434;-72
2021/12/19 01:12:25;;;;;;;42.03;18.30;;;7.20;99.90;;;;;;4977608;28;20431;-74
2021/12/19 01:14:51;;;;;;;42.17;19.40;;;7.20;99.90;;;;;;4978530;28;20466;-72
2021/12/19 01:17:17;;;;;;;43.27;18.67;;;7.20;99.90;;;;;;4995787;28;20407;-71
2021/12/19 01:19:46;;;;;;;43.37;20.00;;;7.20;99.90;;;;;;4995761;28;20538;-72
2021/12/19 01:22:12;;;;;;;37.93;17.00;;;7.20;99.90;;;;;;4993029;28;20788;-72
2021/12/19 01:24:41;;;;;;;45.10;17.30;;;7.20;99.90;;;;;;4979326;28;20446;-72
2021/12/19 01:27:10;;;;;;;40.70;16.30;;;7.20;99.90;;;;;;4977130;28;20433;-73
2021/12/19 01:29:35;;;;;;;38.83;15.43;;;7.20;99.90;;;;;;4996507;28;20632;-72
2021/12/19 01:32:02;;;;;;;44.20;17.07;;;7.30;99.90;;;;;;4995327;28;20951;-73
2021/12/19 01:34:27;;;;;;;42.10;16.23;;;7.20;99.90;;;;;;4996441;28;20215;-73
2021/12/19 01:36:53;;;;;;;37.13;16.90;;;7.20;99.90;;;;;;4997539;28;20427;-72
2021/12/19 01:39:19;;;;;;;39.07;17.20;;;7.20;99.90;;;;;;4979513;28;20267;-73
2021/12/19 01:41:50;;;;;;;39.17;16.43;;;7.20;99.90;;;;;;4996242;28;20179;-73
2021/12/19 01:44:16;;;;;;;33.90;14.67;;;7.20;99.90;;;;;;4996824;28;20286;-72
2021/12/19 01:46:44;;;;;;;50.63;16.93;;;7.20;99.90;;;;;;5007197;28;20425;-73
2021/12/19 01:49:10;;;;;;;44.03;17.80;;;7.20;99.90;;;;;;5007839;28;20560;-73
2021/12/19 01:51:36;;;;;;;39.20;17.37;;;7.20;99.90;;;;;;4994614;28;20463;-73
2021/12/19 01:54:02;;;;;;;39.03;15.80;;;7.20;99.90;;;;;;4997837;28;20456;-73
2021/12/19 01:56:28;;;;;;;37.33;16.13;;;7.20;99.90;;;;;;4981557;28;20562;-72
2021/12/19 01:58:54;;;;;;;32.17;14.60;;;7.20;99.90;;;;;;4976351;28;20467;-77
2021/12/19 02:01:19;;;;;;;39.33;15.43;;;7.20;99.90;;;;;;4976462;28;20226;-77
2021/12/19 02:03:45;;;;;;;38.90;17.00;;;7.20;99.90;;;;;;4977076;28;20175;-77
2021/12/19 02:06:11;;;;;;;35.07;15.77;;;7.10;99.90;;;;;;4978524;28;20262;-78
2021/12/19 02:08:37;;;;;;;37.40;16.33;;;7.20;99.90;;;;;;4997413;28;20246;-77
2021/12/19 02:11:02;;;;;;;31.23;14.33;;;7.20;99.90;;;;;;4970382;28;20248;-77
2021/12/19 02:13:28;;;;;;;37.43;17.20;;;7.20;99.90;;;;;;4985890;28;20195;-77
2021/12/19 02:15:54;;;;;;;36.10;15.50;;;7.20;99.90;;;;;;5003034;28;20195;-77
2021/12/19 02:18:21;;;;;;;36.23;14.27;;;7.20;99.90;;;;;;4995739;28;20413;-77
2021/12/19 02:20:50;;;;;;;33.40;15.17;;;7.20;99.90;;;;;;4995274;28;20190;-77
2021/12/19 02:23:19;;;;;;;33.23;16.50;;;7.10;99.90;;;;;;4995834;28;20522;-77
2021/12/19 02:25:46;;;;;;;41.33;15.37;;;7.10;99.90;;;;;;4994846;28;20478;-77
2021/12/19 02:28:12;;;;;;;29.53;14.03;;;7.10;99.90;;;;;;4994648;28;20769;-77
2021/12/19 02:30:38;;;;;;;30.97;16.17;;;7.10;99.90;;;;;;4998071;28;20423;-77
2021/12/19 02:33:12;;;;;;;33.43;15.57;;;7.10;99.90;;;;;;4979814;28;20475;-76
2021/12/19 02:35:39;;;;;;;25.50;14.80;;;7.20;99.90;;;;;;4979089;28;20447;-77
2021/12/19 02:48:48;;;;;;;24.97;13.10;;;7.20;99.90;;;;;;4994298;28;20521;-77
2021/12/19 02:51:13;;;;;;;25.67;13.37;;;7.10;99.90;;;;;;4993731;28;20462;-77
2021/12/19 02:53:42;;;;;;;28.70;12.20;;;7.10;99.90;;;;;;4993305;28;20192;-77
2021/12/19 02:56:10;;;;;;;25.10;12.57;;;7.10;99.90;;;;;;4993114;28;20195;-77
2021/12/19 02:58:38;;;;;;;26.50;14.03;;;7.10;99.90;;;;;;4975864;28;20430;-76
2021/12/19 03:01:07;;;;;;;30.83;14.13;;;7.10;99.90;;;;;;4976543;28;20410;-77
2021/12/19 03:03:33;;;;;;;29.30;12.63;;;7.10;99.90;;;;;;4992230;28;20502;-76
2021/12/19 03:05:58;;;;;;;23.43;13.13;;;7.10;99.90;;;;;;4993909;28;20859;-77
2021/12/19 03:08:24;;;;;;;27.23;13.87;;;7.10;99.90;;;;;;4993665;28;20267;-76
2021/12/19 03:11:42;;;;;;;26.97;13.00;;;7.10;99.90;;;;;;4994193;28;20322;-76
2021/12/19 03:19:23;;;;;;;23.93;12.63;;;7.10;99.90;;;;;;4994826;28;20522;-77
2021/12/19 03:21:49;;;;;;;23.37;12.07;;;7.10;99.90;;;;;;4995873;28;20447;-77
2021/12/19 03:24:16;;;;;;;28.87;12.63;;;7.10;99.90;;;;;;4995483;28;20574;-76
2021/12/19 03:26:42;;;;;;;22.57;12.73;;;7.10;99.90;;;;;;4995069;28;20207;-76
2021/12/19 03:29:07;;;;;;;22.60;10.67;;;7.10;99.90;;;;;;5004957;28;20434;-76
2021/12/19 03:31:33;;;;;;;27.30;12.47;;;7.10;99.90;;;;;;4993861;28;20262;-77
2021/12/19 03:33:59;;;;;;;20.87;10.70;;;7.10;99.90;;;;;;4992503;28;20196;-77
2021/12/19 03:36:27;;;;;;;22.60;11.57;;;7.10;99.90;;;;;;4993454;28;20172;-76
2021/12/19 03:38:57;;;;;;;20.13;11.13;;;7.00;99.90;;;;;;4992783;28;20521;-77
2021/12/19 03:41:33;;;;;;;25.13;12.73;;;7.00;99.90;;;;;;4993214;28;20774;-76
2021/12/19 03:43:59;;;;;;;20.00;10.67;;;7.00;99.90;;;;;;4974956;28;20481;-77
2021/12/19 03:46:24;;;;;;;15.70;9.93;;;7.00;99.90;;;;;;4992063;28;20518;-77
2021/12/19 03:48:50;;;;;;;17.93;10.20;;;7.00;99.90;;;;;;4975559;28;20506;-77
2021/12/19 03:51:16;;;;;;;16.17;9.33;;;7.00;99.90;;;;;;4992645;28;20171;-76
2021/12/19 03:53:41;;;;;;;15.90;9.20;;;7.10;99.90;;;;;;4991951;28;20219;-76
2021/12/19 03:56:07;;;;;;;19.40;9.80;;;7.00;99.90;;;;;;4958513;28;20195;-76
2021/12/19 03:58:33;;;;;;;18.37;9.93;;;7.00;99.90;;;;;;4991568;28;20175;-77
2021/12/19 04:01:00;;;;;;;18.20;8.33;;;7.10;99.90;;;;;;4992733;28;20266;-78
2021/12/19 04:03:28;;;;;;;20.87;10.23;;;7.10;99.90;;;;;;4975315;28;20744;-78
2021/12/19 04:05:54;;;;;;;19.50;10.33;;;7.00;99.90;;;;;;4976029;28;20444;-77
2021/12/19 04:08:20;;;;;;;24.60;11.20;;;7.00;99.90;;;;;;4960186;28;20497;-77
2021/12/19 04:10:48;;;;;;;22.33;10.30;;;7.10;99.90;;;;;;4973879;28;20168;-77
2021/12/19 04:13:15;;;;;;;23.50;10.57;;;7.10;99.90;;;;;;4993247;28;20553;-76
2021/12/19 04:15:41;;;;;;;22.30;11.57;;;7.10;99.90;;;;;;4991569;28;20438;-78
2021/12/19 04:18:06;;;;;;;24.03;10.30;;;7.10;99.90;;;;;;4992979;28;20938;-77
2021/12/19 04:20:32;;;;;;;22.20;11.50;;;7.10;99.90;;;;;;4992698;28;20580;-75
2021/12/19 04:22:58;;;;;;;21.13;11.83;;;7.10;99.90;;;;;;4992786;28;20191;-77
2021/12/19 04:25:24;;;;;;;21.47;10.63;;;7.10;99.90;;;;;;4974814;28;20262;-77
2021/12/19 04:27:50;;;;;;;21.67;11.07;;;7.00;99.90;;;;;;4991986;28;20494;-77
2021/12/19 04:30:19;;;;;;;25.90;12.93;;;7.00;99.90;;;;;;4977151;28;20233;-78
2021/12/19 04:32:54;;;;;;;23.87;12.40;;;7.00;99.90;;;;;;4993939;28;20451;-76
2021/12/19 04:35:20;;;;;;;21.83;12.47;;;7.00;99.90;;;;;;4991581;28;20430;-76
2021/12/19 04:40:40;;;;;;;18.93;9.77;;;7.10;99.90;;;;;;4992290;28;20182;-76
2021/12/19 04:56:30;;;;;;;17.77;10.00;;;7.00;99.90;;;;;;4972289;28;20494;-76
2021/12/19 04:59:14;;;;;;;15.73;9.33;;;7.00;99.90;;;;;;4980023;28;20462;-76
2021/12/19 05:15:28;;;;;;;20.13;10.17;;;7.00;99.90;;;;;;4958817;28;20512;-77
2021/12/19 05:17:58;;;;;;;18.43;8.97;;;7.00;99.90;;;;;;4961638;28;20427;-76
2021/12/19 05:20:27;;;;;;;17.87;9.63;;;7.00;99.90;;;;;;4994962;28;20430;-77
2021/12/19 05:22:59;;;;;;;17.67;9.30;;;7.00;99.90;;;;;;4961846;28;20438;-76
2021/12/19 05:25:24;;;;;;;19.93;10.03;;;7.00;99.90;;;;;;4995264;28;20447;-77
2021/12/19 05:27:56;;;;;;;20.23;8.83;;;7.00;99.90;;;;;;4977571;28;20434;-78
2021/12/19 05:30:24;;;;;;;19.70;11.10;;;7.00;99.90;;;;;;4994519;28;20186;-77
2021/12/19 05:32:52;;;;;;;15.97;8.43;;;7.00;99.90;;;;;;4978451;28;20451;-76
2021/12/19 05:46:24;;;;;;;19.70;10.07;;;7.00;99.90;;;;;;4994586;28;20431;-76
2021/12/19 05:48:50;;;;;;;21.73;10.40;;;7.00;99.90;;;;;;4995932;28;20791;-75
2021/12/19 05:51:19;;;;;;;21.23;9.77;;;7.00;99.90;;;;;;4997615;28;20186;-76
2021/12/19 05:53:44;;;;;;;16.50;9.03;;;7.00;99.90;;;;;;4979793;28;20379;-77
2021/12/19 05:56:10;;;;;;;14.93;7.13;;;7.00;99.90;;;;;;4999379;28;20745;-76
2021/12/19 05:58:36;;;;;;;18.10;8.17;;;7.00;99.90;;;;;;4977326;28;20183;-77
2021/12/19 06:01:01;;;;;;;15.07;8.50;;;7.00;99.90;;;;;;4978100;28;20187;-76
2021/12/19 06:03:27;;;;;;;15.03;8.37;;;7.00;99.90;;;;;;4995404;28;20236;-76
2021/12/19 06:05:53;;;;;;;14.60;7.63;;;7.00;99.90;;;;;;4994644;28;20259;-76
2021/12/19 06:08:18;;;;;;;12.60;6.93;;;7.00;99.90;;;;;;4976790;28;20183;-76
2021/12/19 06:10:44;;;;;;;22.33;9.00;;;7.00;99.90;;;;;;4994530;28;20190;-77
2021/12/19 06:13:10;;;;;;;12.50;6.63;;;7.00;99.90;;;;;;4993849;28;20350;-76
2021/12/19 06:15:36;;;;;;;14.27;7.47;;;7.00;99.90;;;;;;4993370;28;20246;-78
2021/12/19 06:18:03;;;;;;;12.83;7.30;;;7.00;99.90;;;;;;4995328;28;20270;-77
2021/12/19 06:20:31;;;;;;;13.80;7.87;;;7.00;99.90;;;;;;4994235;28;20515;-77
2021/12/19 06:22:58;;;;;;;15.80;8.30;;;7.00;99.90;;;;;;4994087;28;20407;-78
2021/12/19 06:25:24;;;;;;;16.77;8.67;;;7.00;99.90;;;;;;4994271;28;20450;-76
2021/12/19 06:27:50;;;;;;;15.00;7.90;;;7.00;99.90;;;;;;4977467;28;20473;-77
2021/12/19 06:30:15;;;;;;;15.30;7.93;;;7.00;99.90;;;;;;4994265;28;20187;-76
2021/12/19 06:32:41;;;;;;;12.93;7.77;;;7.00;99.90;;;;;;4994924;28;20860;-77
2021/12/19 06:35:17;;;;;;;18.47;8.80;;;6.90;99.90;;;;;;4977146;28;20219;-77
2021/12/19 06:37:43;;;;;;;21.60;11.67;;;6.90;99.90;;;;;;4994256;28;20175;-77
2021/12/19 06:40:10;;;;;;;24.80;11.87;;;7.00;99.90;;;;;;4976929;28;20430;-76
2021/12/19 06:42:36;;;;;;;18.70;8.23;;;7.00;99.90;;;;;;4994078;28;20415;-75
2021/12/19 06:45:04;;;;;;;16.73;9.77;;;7.00;99.90;;;;;;4977731;28;20529;-77
2021/12/19 06:47:30;;;;;;;13.73;7.90;;;7.00;99.90;;;;;;4994374;28;20699;-77
2021/12/19 06:49:56;;;;;;;15.33;8.53;;;7.00;99.90;;;;;;4979292;28;20429;-77
2021/12/19 06:52:21;;;;;;;16.50;8.87;;;7.00;99.90;;;;;;4997194;28;20215;-76
2021/12/19 06:54:49;;;;;;;18.20;9.73;;;7.00;99.90;;;;;;4994903;28;20294;-74
2021/12/19 06:57:15;;;;;;;13.73;9.10;;;7.00;99.90;;;;;;5004066;28;20195;-76
2021/12/19 06:59:41;;;;;;;15.70;8.30;;;7.00;99.90;;;;;;5003996;28;20411;-76
2021/12/19 07:02:06;;;;;;;14.67;8.00;;;7.00;99.90;;;;;;5004144;28;20255;-76
2021/12/19 07:04:32;;;;;;;17.60;9.63;;;7.00;99.90;;;;;;4995436;28;20196;-77
2021/12/19 07:06:58;;;;;;;18.20;9.73;;;7.10;99.90;;;;;;4974676;28;20164;-78
2021/12/19 07:09:23;;;;;;;18.70;8.93;;;7.00;99.90;;;;;;4975416;28;20188;-77
2021/12/19 07:11:49;;;;;;;16.27;8.50;;;7.00;99.90;;;;;;4993478;28;20584;-77
2021/12/19 07:14:15;;;;;;;17.43;8.60;;;7.00;99.90;;;;;;4991434;28;20756;-77
2021/12/19 07:16:41;;;;;;;15.50;8.63;;;7.00;99.90;;;;;;4993024;28;20179;-78
2021/12/19 07:19:06;;;;;;;17.60;7.80;;;7.00;99.90;;;;;;4994277;28;20168;-76
2021/12/19 07:21:32;;;;;;;16.73;9.07;;;7.00;99.90;;;;;;4974794;28;20167;-78
2021/12/19 07:23:58;;;;;;;17.37;9.57;;;7.00;99.90;;;;;;4993262;28;20175;-77
2021/12/19 07:26:23;;;;;;;15.40;8.53;;;7.00;99.90;;;;;;4993369;28;20168;-77
2021/12/19 07:28:50;;;;;;;16.60;8.70;;;7.00;99.90;;;;;;4993425;28;20179;-77
2021/12/19 07:31:17;;;;;;;17.40;8.57;;;7.00;99.90;;;;;;4976186;28;20179;-77
2021/12/19 07:33:45;;;;;;;15.37;8.20;;;7.00;99.90;;;;;;4993032;28;20446;-75
2021/12/19 07:36:11;;;;;;;18.73;9.13;;;7.00;99.90;;;;;;4974639;28;20454;-75
2021/12/19 07:38:49;;;;;;;17.23;8.67;;;7.00;99.90;;;;;;4993115;28;20485;-74
2021/12/19 07:41:14;;;;;;;19.77;11.03;;;7.00;99.90;;;;;;4993431;28;20415;-72
2021/12/19 07:43:40;;;;;;;19.97;11.10;;;7.00;99.90;;;;;;4994585;28;20476;-72
2021/12/19 07:46:05;;;;;;;19.50;9.40;;;7.00;99.90;;;;;;4994410;28;20199;-70
2021/12/19 07:48:31;;;;;;;16.67;8.70;;;7.00;99.90;;;;;;4979332;28;20559;-71
2021/12/19 07:50:56;;;;;;;19.70;10.30;;;7.00;99.90;;;;;;4997953;28;20696;-73
2021/12/19 07:53:22;;;;;;;19.60;9.20;;;7.00;99.90;;;;;;4999270;28;20313;-72
2021/12/19 07:55:48;;;;;;;19.17;9.80;;;7.00;99.90;;;;;;4984759;28;20194;-71
2021/12/19 07:58:14;;;;;;;20.67;10.20;;;7.00;99.90;;;;;;5020378;28;20187;-72
2021/12/19 08:00:39;;;;;;;19.33;9.20;;;7.00;99.90;;;;;;4994908;28;20168;-72
2021/12/19 08:03:05;;;;;;;17.27;8.67;;;7.00;99.90;;;;;;4993229;28;20951;-72
2021/12/19 08:05:31;;;;;;;17.57;8.80;;;7.00;99.90;;;;;;4976120;28;20393;-72
2021/12/19 08:08:01;;;;;;;14.57;8.43;;;7.00;99.90;;;;;;4994983;28;20231;-72
2021/12/19 08:13:00;;;;;;;14.83;7.27;;;7.10;99.90;;;;;;4992485;28;20854;-71
2021/12/19 08:15:27;;;;;;;16.63;7.60;;;7.00;99.90;;;;;;4992328;28;20465;-72
2021/12/19 08:17:52;;;;;;;15.17;7.40;;;7.00;99.90;;;;;;4975423;28;20899;-71
2021/12/19 08:20:18;;;;;;;17.77;7.73;;;7.00;99.90;;;;;;4992228;28;20450;-69
2021/12/19 08:22:46;;;;;;;11.50;6.70;;;7.00;99.90;;;;;;4992573;28;20206;-72
2021/12/19 08:25:12;;;;;;;10.50;5.63;;;7.00;99.90;;;;;;4992680;28;20207;-71
2021/12/19 08:27:37;;;;;;;11.67;6.80;;;7.00;99.90;;;;;;4990452;28;20435;-73
2021/12/19 08:30:09;;;;;;;12.37;5.47;;;7.00;99.90;;;;;;4992784;28;20418;-71
2021/12/19 08:32:36;;;;;;;7.80;4.93;;;7.00;99.90;;;;;;4995017;28;20183;-71
2021/12/19 08:35:03;;;;;;;9.10;4.10;;;7.00;99.90;;;;;;4996415;28;20438;-71
2021/12/19 08:37:32;;;;;;;7.30;3.77;;;7.00;99.90;;;;;;4996268;28;20415;-72
2021/12/19 08:39:58;;;;;;;6.03;3.17;;;7.00;99.90;;;;;;4996596;28;20845;-72
2021/12/19 08:42:24;;;;;;;5.20;3.20;;;7.00;99.90;;;;;;4997121;28;21006;-73
2021/12/19 08:44:50;;;;;;;4.67;2.73;;;7.00;99.90;;;;;;4978839;28;20187;-70
2021/12/19 08:47:16;;;;;;;4.93;3.00;;;7.00;99.90;;;;;;4996576;28;20925;-71
2021/12/19 08:49:42;;;;;;;5.60;2.50;;;7.00;99.70;;;;;;4993365;28;20388;-71
2021/12/19 08:52:09;;;;;;;12.60;6.90;;;7.00;99.50;;;;;;4989476;28;20415;-71
2021/12/19 08:54:35;;;;;;;10.00;3.93;;;7.00;99.50;;;;;;4979206;28;20466;-72
2021/12/19 08:57:01;;;;;;;8.20;3.97;;;7.00;99.40;;;;;;4996455;28;20418;-71
2021/12/19 08:59:29;;;;;;;4.10;2.50;;;7.00;99.30;;;;;;4992399;28;20939;-72
2021/12/19 09:01:57;;;;;;;5.53;2.63;;;7.00;99.50;;;;;;4996348;28;20196;-72
2021/12/19 09:04:23;;;;;;;5.37;2.97;;;7.00;98.90;;;;;;4996304;28;20952;-72
2021/12/19 09:06:50;;;;;;;5.83;2.70;;;7.00;99.10;;;;;;4996507;28;20491;-71
2021/12/19 09:09:15;;;;;;;4.43;2.73;;;7.10;99.10;;;;;;4995681;28;20492;-72
2021/12/19 09:11:41;;;;;;;7.90;3.63;;;7.10;99.10;;;;;;5013457;28;20395;-70
2021/12/19 09:14:07;;;;;;;8.43;3.20;;;7.10;99.00;;;;;;5015753;28;20231;-71
2021/12/19 09:16:33;;;;;;;6.90;3.33;;;7.10;99.00;;;;;;5016559;28;20168;-70
2021/12/19 09:18:58;;;;;;;5.07;2.47;;;7.10;98.90;;;;;;4989208;28;20172;-72
2021/12/19 09:21:24;;;;;;;6.50;2.90;;;7.10;99.10;;;;;;4997136;28;20171;-73
2021/12/19 09:23:49;;;;;;;8.17;3.70;;;7.10;99.20;;;;;;5002937;28;20172;-71
2021/12/19 09:26:16;;;;;;;6.10;3.47;;;7.10;99.20;;;;;;5000638;28;20234;-72
2021/12/19 09:28:41;;;;;;;8.00;3.60;;;7.10;99.20;;;;;;4997745;28;20242;-73
2021/12/19 09:31:07;;;;;;;7.73;4.20;;;7.10;99.20;;;;;;4998156;28;20419;-71
2021/12/19 09:33:33;;;;;;;8.13;4.40;;;7.20;99.30;;;;;;4980952;28;20222;-71
2021/12/19 09:35:59;;;;;;;8.50;4.30;;;7.20;99.20;;;;;;4998111;28;20347;-72
2021/12/19 09:38:26;;;;;;;7.60;3.80;;;7.20;99.30;;;;;;4999454;28;20871;-74
2021/12/19 09:40:58;;;;;;;7.17;4.60;;;7.30;99.30;;;;;;4999560;28;20430;-73
2021/12/19 09:43:43;;;;;;;11.93;4.43;;;7.30;99.10;;;;;;4982713;28;20435;-72
2021/12/19 09:46:16;;;;;;;9.27;3.90;;;7.30;99.20;;;;;;5000454;28;20435;-72
2021/12/19 09:48:44;;;;;;;14.03;5.33;;;7.30;99.20;;;;;;5000960;28;20414;-73
2021/12/19 09:51:11;;;;;;;8.17;4.27;;;7.30;99.00;;;;;;4979483;28;20438;-71
2021/12/19 09:53:38;;;;;;;8.93;3.77;;;7.30;99.00;;;;;;4990898;28;20459;-72
2021/12/19 09:56:07;;;;;;;10.23;3.80;;;7.40;99.00;;;;;;4962011;28;20431;-71
2021/12/19 09:58:37;;;;;;;6.50;4.60;;;7.40;99.00;;;;;;4995478;28;20435;-73
2021/12/19 10:01:05;;;;;;;10.93;3.47;;;7.40;99.00;;;;;;4998800;28;20455;-72
2021/12/19 10:03:32;;;;;;;5.50;3.63;;;7.40;98.90;;;;;;5005146;28;20661;-70
2021/12/19 10:06:16;;;;;;;4.33;2.10;;;7.50;98.80;;;;;;5001131;28;20467;-73
2021/12/19 10:08:45;;;;;;;6.97;3.00;;;7.50;98.70;;;;;;4981592;28;20487;-73
2021/12/19 10:14:35;;;;;;;6.10;3.00;;;7.60;98.80;;;;;;4920282;29;20486;-72
2021/12/19 10:17:07;;;;;;;4.00;2.23;;;7.60;98.80;;;;;;4993822;28;20437;-74
2021/12/19 10:19:49;;;;;;;4.07;2.53;;;7.70;98.60;;;;;;5007389;28;20446;-72
2021/12/19 10:22:25;;;;;;;6.47;2.90;;;7.80;98.40;;;;;;5005497;28;20437;-72
2021/12/19 10:24:52;;;;;;;4.70;2.53;;;7.80;98.10;;;;;;5009118;28;20456;-73
2021/12/19 10:27:36;;;;;;;5.83;2.47;;;7.90;98.10;;;;;;5008978;28;20415;-72
2021/12/19 10:30:13;;;;;;;3.20;1.93;;;7.90;97.80;;;;;;5014839;28;20427;-71
2021/12/19 10:32:53;;;;;;;3.80;2.33;;;7.90;97.50;;;;;;4999176;28;20694;-71
2021/12/19 10:35:26;;;;;;;5.77;2.00;;;7.90;97.50;;;;;;5005888;28;20450;-70
2021/12/19 10:37:52;;;;;;;3.57;1.90;;;7.90;97.60;;;;;;5015905;28;20414;-72
2021/12/19 10:40:19;;;;;;;5.20;1.80;;;8.00;97.50;;;;;;5001449;28;20424;-71
2021/12/19 10:42:47;;;;;;;4.00;1.80;;;8.00;97.40;;;;;;5002248;28;20466;-72
2021/12/19 10:48:24;;;;;;;5.43;2.90;;;7.90;97.30;;;;;;5000511;28;20477;-72
2021/12/19 10:50:58;;;;;;;4.87;2.90;;;7.90;97.60;;;;;;5002511;28;20469;-73
2021/12/19 10:53:28;;;;;;;6.00;2.50;;;8.00;97.70;;;;;;4990254;28;20458;-73
2021/12/19 10:55:55;;;;;;;5.80;2.73;;;8.10;97.40;;;;;;5000868;28;20859;-71
2021/12/19 10:58:56;;;;;;;5.73;3.60;;;8.20;97.20;;;;;;5018889;28;20421;-72
2021/12/19 11:01:41;;;;;;;6.33;3.73;;;8.10;97.40;;;;;;5005490;28;20820;-71
2021/12/19 11:04:09;;;;;;;11.83;5.03;;;8.20;97.40;;;;;;4983768;28;20530;-72
2021/12/19 11:06:38;;;;;;;9.30;6.00;;;8.10;97.10;;;;;;4998630;28;20778;-72
2021/12/19 11:09:16;;;;;;;7.37;4.43;;;8.10;97.40;;;;;;4987535;28;20758;-70
2021/12/19 11:11:46;;;;;;;10.77;5.00;;;8.10;97.50;;;;;;4984207;28;20556;-73
2021/12/19 11:14:15;;;;;;;5.53;3.90;;;8.10;97.40;;;;;;4998961;28;20466;-71
2021/12/19 11:16:42;;;;;;;8.03;4.77;;;8.10;97.40;;;;;;4981483;28;20429;-72
2021/12/19 11:19:07;;;;;;;7.17;4.83;;;8.00;97.50;;;;;;4984479;28;20548;-73
2021/12/19 11:21:36;;;;;;;6.93;3.90;;;8.00;97.80;;;;;;5004530;28;20422;-73
2021/12/19 11:24:11;;;;;;;6.83;4.17;;;8.10;97.80;;;;;;5000387;28;20285;-71
2021/12/19 11:26:39;;;;;;;5.03;3.47;;;8.10;97.90;;;;;;4998434;28;20445;-72
2021/12/19 11:29:07;;;;;;;7.57;4.43;;;8.20;97.50;;;;;;4982381;28;20860;-72
2021/12/19 11:31:34;;;;;;;5.27;3.23;;;8.20;97.20;;;;;;5006026;28;20419;-72
2021/12/19 11:34:27;;;;;;;4.50;2.67;;;8.20;96.90;;;;;;5010957;28;20479;-69
2021/12/19 11:37:11;;;;;;;3.70;2.93;;;8.20;96.90;;;;;;4989219;28;20486;-73
2021/12/19 11:39:41;;;;;;;2.87;1.93;;;8.20;96.70;;;;;;5001428;28;20407;-74
2021/12/19 11:42:14;;;;;;;3.30;2.00;;;8.30;96.60;;;;;;5010139;28;20419;-73
2021/12/19 11:47:52;;;;;;;2.23;1.80;;;8.30;96.60;;;;;;5013537;28;20435;-71
2021/12/19 11:50:26;;;;;;;3.73;1.10;;;8.40;96.20;;;;;;4982668;28;20430;-73
2021/12/19 11:53:13;;;;;;;2.80;1.33;;;8.50;96.10;;;;;;5005595;28;20450;-75
2021/12/19 11:55:43;;;;;;;4.00;1.60;;;8.40;95.70;;;;;;4975887;28;20508;-74
2021/12/19 11:58:09;;;;;;;3.80;1.50;;;8.40;95.90;;;;;;5002811;28;20431;-74
2021/12/19 12:00:50;;;;;;;3.80;2.73;;;8.40;95.90;;;;;;5003413;28;20962;-72
2021/12/19 12:03:21;;;;;;;3.13;1.47;;;8.30;96.00;;;;;;4993411;28;20266;-72
2021/12/19 12:06:21;;;;;;;3.80;2.03;;;8.30;96.30;;;;;;5009161;28;20463;-72
2021/12/19 12:09:06;;;;;;;5.93;3.50;;;8.20;95.90;;;;;;5008165;28;20426;-71
2021/12/19 12:11:37;;;;;;;1.87;1.10;;;8.20;96.20;;;;;;4999517;28;20425;-74
2021/12/19 12:14:20;;;;;;;2.73;2.10;;;8.10;96.00;;;;;;5012007;28;20459;-72
2021/12/19 12:16:59;;;;;;;2.00;1.23;;;8.10;96.20;;;;;;4994339;28;20469;-71
2021/12/19 12:19:52;;;;;;;4.40;1.63;;;8.10;96.10;;;;;;4989661;28;20872;-72
2021/12/19 12:22:25;;;;;;;2.40;1.70;;;8.10;96.20;;;;;;4990867;28;20465;-71
2021/12/19 12:25:18;;;;;;;5.57;2.00;;;8.10;95.90;;;;;;4977368;28;20442;-71
2021/12/19 12:27:52;;;;;;;5.57;3.07;;;8.00;95.70;;;;;;4994590;28;20423;-71
2021/12/19 12:30:25;;;;;;;3.23;1.80;;;8.00;95.50;;;;;;4997240;28;20557;-73
2021/12/19 12:32:51;;;;;;;5.53;3.23;;;8.00;95.40;;;;;;5009713;28;20499;-72
2021/12/19 12:35:19;;;;;;;3.97;3.60;;;8.00;95.30;;;;;;4997112;28;20431;-72
2021/12/19 12:37:47;;;;;;;4.50;3.30;;;7.90;95.40;;;;;;4998490;28;20442;-73
2021/12/19 12:40:27;;;;;;;3.60;3.17;;;7.90;95.60;;;;;;4994029;28;20699;-70
2021/12/19 12:43:09;;;;;;;3.60;3.27;;;7.90;95.60;;;;;;4993536;28;20410;-72
2021/12/19 12:45:50;;;;;;;7.80;5.63;;;7.90;95.80;;;;;;4994146;28;20450;-73
2021/12/19 12:48:28;;;;;;;7.47;5.93;;;7.90;96.00;;;;;;5000028;28;20983;-71
2021/12/19 12:50:54;;;;;;;5.03;4.53;;;7.90;96.00;;;;;;4993070;28;20414;-73
2021/12/19 12:53:35;;;;;;;3.53;3.20;;;7.90;96.10;;;;;;4994642;28;21004;-72
2021/12/19 12:56:09;;;;;;;6.63;5.83;;;7.90;96.10;;;;;;4976415;28;20195;-72
2021/12/19 12:58:37;;;;;;;4.27;2.73;;;7.90;96.20;;;;;;4996009;28;20964;-72
2021/12/19 13:01:18;;;;;;;5.20;3.70;;;7.90;96.10;;;;;;4995524;28;20505;-73
2021/12/19 13:04:02;;;;;;;4.37;3.67;;;7.90;96.20;;;;;;4961562;28;20450;-73
2021/12/19 13:06:59;;;;;;;8.50;4.60;;;7.90;96.30;;;;;;4995681;28;20422;-73
2021/12/19 13:09:28;;;;;;;4.57;2.83;;;7.90;96.50;;;;;;4972965;28;20441;-72
2021/12/19 13:12:03;;;;;;;6.47;3.30;;;7.90;96.60;;;;;;5001263;28;20439;-74
2021/12/19 13:14:32;;;;;;;4.90;2.73;;;7.90;96.50;;;;;;4985882;28;20492;-73
2021/12/19 13:17:03;;;;;;;4.83;2.67;;;7.90;96.50;;;;;;4994847;28;20466;-72
2021/12/19 13:19:37;;;;;;;3.83;2.10;;;8.00;96.50;;;;;;4996314;28;20419;-74
2021/12/19 13:22:08;;;;;;;3.23;1.80;;;7.90;96.40;;;;;;4999327;28;20529;-72
2021/12/19 13:24:35;;;;;;;4.30;2.10;;;7.90;96.30;;;;;;4990320;28;20700;-72
2021/12/19 13:27:19;;;;;;;2.70;1.50;;;7.90;96.40;;;;;;5001331;28;20407;-74
2021/12/19 13:30:03;;;;;;;4.83;2.53;;;7.90;96.60;;;;;;4998079;28;20801;-73
2021/12/19 13:32:40;;;;;;;23.70;12.63;;;7.80;96.60;;;;;;5001771;28;21093;-72
2021/12/19 13:35:16;;;;;;;3.07;2.57;;;7.80;96.70;;;;;;5000344;28;20454;-72
2021/12/19 13:37:54;;;;;;;3.43;2.20;;;7.80;96.70;;;;;;4999031;28;20427;-72
2021/12/19 13:40:22;;;;;;;2.40;1.47;;;7.80;96.80;;;;;;4997672;28;20426;-73
2021/12/19 13:42:55;;;;;;;2.47;1.87;;;7.80;96.80;;;;;;4997651;28;20415;-72
2021/12/19 13:45:25;;;;;;;3.03;1.63;;;7.70;96.60;;;;;;4984296;28;20455;-74
2021/12/19 13:47:51;;;;;;;2.57;2.17;;;7.70;96.30;;;;;;5002768;28;20430;-77
2021/12/19 13:50:17;;;;;;;3.90;2.40;;;7.70;96.30;;;;;;4987408;28;20419;-69
2021/12/19 13:52:47;;;;;;;4.07;2.47;;;7.70;96.20;;;;;;4995473;28;20426;-71
2021/12/19 13:55:15;;;;;;;4.50;2.10;;;7.70;96.10;;;;;;4992188;28;20482;-71
2021/12/19 13:57:45;;;;;;;7.10;2.10;;;7.70;95.90;;;;;;4991873;28;20454;-70
2021/12/19 14:00:34;;;;;;;3.57;2.33;;;7.70;95.90;;;;;;5004911;28;20407;-72
2021/12/19 14:03:04;;;;;;;3.93;2.23;;;7.70;95.50;;;;;;5008398;28;20434;-74
2021/12/19 14:05:42;;;;;;;6.17;3.27;;;7.70;95.40;;;;;;4991582;28;20494;-71
2021/12/19 14:08:26;;;;;;;5.07;2.47;;;7.70;95.30;;;;;;4989324;28;20438;-76
2021/12/19 14:11:11;;;;;;;10.00;3.00;;;7.70;95.30;;;;;;4997318;28;20434;-76
2021/12/19 14:13:40;;;;;;;4.07;1.73;;;7.70;95.20;;;;;;4997998;28;20536;-74
2021/12/19 14:16:12;;;;;;;3.83;2.00;;;7.70;95.10;;;;;;4982711;28;20486;-73